Airfield :
LOGIN :

Register | Disclaimer

   EN    FR    IT 

 










Legend :    VFR   Marginal VFR   IFR   Intensive IFR   Very Intensive IFR
Visi :
Ceiling :
>= 8 km
>= 3000ft
5 to 8 km
1000 to 3000 ft
1500m to 5 km
500 to 1000 ft
800 to 1500m
200 to 500 ft
< 800m
< 200 ft
Symbols :   Thunderstorms  Fog  Heavy snow  Heavy precipitations  Wind > 20 kt
SIGMETs :     Misc.  Thunderstorms  Icing  Turbulence  Mountain Waves  Volcanic Ashes






- Airport Elevation : 274 ft
- IATA code : PUY


LDPL - Pula

CURRENT METAR :
  • 231500Z 22005KT 170V270 CAVOK 23/13 Q1015 NOSIG

EXPIRED METARs :
  • 231430Z 22004KT 170V290 CAVOK 23/12 Q1016 NOSIG
  • 231400Z 22005KT 150V280 9999 FEW035 22/13 Q1016 NOSIG
  • 231330Z 24006KT 210V300 9999 FEW030 22/13 Q1016 NOSIG
  • 231300Z 22006KT 140V260 9999 FEW030 22/14 Q1016 NOSIG
  • 231230Z 25007KT 190V300 9999 FEW030 22/14 Q1016 NOSIG
  • 231200Z 23007KT 190V290 9999 FEW028 22/15 Q1016 NOSIG
  • 231130Z 26007KT 220V280 9999 FEW025TCU 21/15 Q1016 BECMG 27008KT NSC
  • 231100Z 24006KT 200V310 9999 FEW025TCU 22/14 Q1016 BECMG 27008KT NSC
  • 231030Z 24005KT 180V310 9999 FEW025 SCT035 22/15 Q1016 BECMG 27008KT

TAF TAF LDPL
Valid from the 23 at 12:00 until the 24 at 12:00 UTC


231125Z 2312/2412 27007KT 9999 FEW025 TX22/2312Z TN12/2404Z
PROB30
TEMPO 2312/2314 FEW025TCU
BECMG 2316/2318 VRB02KT
PROB30
TEMPO 2402/2406 30015KT -TSRA FEW050CB
BECMG 2409/2411 27008KT



MET'MAP, your aeronautical weather chart ! - Copyright ORBIFLY December 2007 - Disclaimer

ORBIFLY MET'MAP TEAM :

Programming & Development : Alexandra Zaïnal
Original concept : Baudouin d'Aumeries
Technical & hardware support : Manuel Goepfert
Assistance : Marc-Olivier Méhu




SOURCES & CREDITS :

   NOAA